sensor_id;sensor_type;location;lat;lon;timestamp;P1;durP1;ratioP1;P2;durP2;ratioP2
3659;SDS011;1846;51.482;7.224;2023-05-07T00:01:05;10.27;;;9.27;;
3659;SDS011;1846;51.482;7.224;2023-05-07T00:03:32;10.27;;;9.27;;
3659;SDS011;1846;51.482;7.224;2023-05-07T00:05:59;11.02;;;9.20;;
3659;SDS011;1846;51.482;7.224;2023-05-07T00:08:26;10.38;;;9.40;;
3659;SDS011;1846;51.482;7.224;2023-05-07T00:10:53;13.07;;;11.13;;
3659;SDS011;1846;51.482;7.224;2023-05-07T00:13:20;10.60;;;9.70;;
3659;SDS011;1846;51.482;7.224;2023-05-07T00:15:46;10.68;;;9.57;;
3659;SDS011;1846;51.482;7.224;2023-05-07T00:18:15;10.48;;;9.57;;
3659;SDS011;1846;51.482;7.224;2023-05-07T00:20:42;12.52;;;10.30;;
3659;SDS011;1846;51.482;7.224;2023-05-07T00:23:08;13.05;;;10.60;;
3659;SDS011;1846;51.482;7.224;2023-05-07T00:25:35;12.00;;;10.80;;
3659;SDS011;1846;51.482;7.224;2023-05-07T00:28:02;12.10;;;10.40;;
3659;SDS011;1846;51.482;7.224;2023-05-07T00:30:29;12.80;;;11.50;;
3659;SDS011;1846;51.482;7.224;2023-05-07T00:32:56;13.07;;;11.77;;
3659;SDS011;1846;51.482;7.224;2023-05-07T00:35:24;13.00;;;11.63;;
3659;SDS011;1846;51.482;7.224;2023-05-07T00:37:51;13.20;;;12.00;;
3659;SDS011;1846;51.482;7.224;2023-05-07T00:40:18;11.60;;;10.60;;
3659;SDS011;1846;51.482;7.224;2023-05-07T00:42:45;12.38;;;11.07;;
3659;SDS011;1846;51.482;7.224;2023-05-07T00:45:14;11.90;;;10.80;;
3659;SDS011;1846;51.482;7.224;2023-05-07T00:47:42;13.00;;;11.90;;
3659;SDS011;1846;51.482;7.224;2023-05-07T00:50:09;11.93;;;10.82;;
3659;SDS011;1846;51.482;7.224;2023-05-07T00:52:39;12.57;;;11.38;;
3659;SDS011;1846;51.482;7.224;2023-05-07T00:55:07;12.80;;;11.60;;
3659;SDS011;1846;51.482;7.224;2023-05-07T00:57:35;13.32;;;12.10;;
3659;SDS011;1846;51.482;7.224;2023-05-07T01:00:04;14.48;;;13.15;;
3659;SDS011;1846;51.482;7.224;2023-05-07T01:02:33;15.35;;;13.95;;
3659;SDS011;1846;51.482;7.224;2023-05-07T01:05:00;16.10;;;14.50;;
3659;SDS011;1846;51.482;7.224;2023-05-07T01:07:29;16.08;;;14.45;;
3659;SDS011;1846;51.482;7.224;2023-05-07T01:09:58;15.57;;;14.07;;
3659;SDS011;1846;51.482;7.224;2023-05-07T01:12:26;17.13;;;15.32;;
3659;SDS011;1846;51.482;7.224;2023-05-07T01:14:54;21.48;;;14.60;;
3659;SDS011;1846;51.482;7.224;2023-05-07T01:17:21;15.05;;;13.60;;
3659;SDS011;1846;51.482;7.224;2023-05-07T01:19:48;15.50;;;14.07;;
3659;SDS011;1846;51.482;7.224;2023-05-07T01:22:15;16.88;;;14.57;;
3659;SDS011;1846;51.482;7.224;2023-05-07T01:24:47;17.90;;;16.17;;
3659;SDS011;1846;51.482;7.224;2023-05-07T01:27:14;17.85;;;16.00;;
3659;SDS011;1846;51.482;7.224;2023-05-07T01:29:41;17.10;;;15.30;;
3659;SDS011;1846;51.482;7.224;2023-05-07T01:32:07;17.73;;;15.93;;
3659;SDS011;1846;51.482;7.224;2023-05-07T01:34:35;18.55;;;15.80;;
3659;SDS011;1846;51.482;7.224;2023-05-07T01:37:03;17.50;;;15.70;;
3659;SDS011;1846;51.482;7.224;2023-05-07T01:39:30;17.27;;;15.48;;
3659;SDS011;1846;51.482;7.224;2023-05-07T01:41:59;16.42;;;14.82;;
3659;SDS011;1846;51.482;7.224;2023-05-07T01:44:26;18.83;;;14.93;;
3659;SDS011;1846;51.482;7.224;2023-05-07T01:46:54;19.30;;;15.90;;
3659;SDS011;1846;51.482;7.224;2023-05-07T01:49:21;17.48;;;15.57;;
3659;SDS011;1846;51.482;7.224;2023-05-07T01:51:48;17.73;;;16.00;;
3659;SDS011;1846;51.482;7.224;2023-05-07T01:54:15;18.88;;;16.98;;
3659;SDS011;1846;51.482;7.224;2023-05-07T01:56:42;18.73;;;16.73;;
3659;SDS011;1846;51.482;7.224;2023-05-07T01:59:11;17.90;;;16.10;;
3659;SDS011;1846;51.482;7.224;2023-05-07T02:01:38;17.80;;;15.40;;
3659;SDS011;1846;51.482;7.224;2023-05-07T02:04:05;21.25;;;17.45;;
3659;SDS011;1846;51.482;7.224;2023-05-07T02:06:32;17.40;;;15.80;;
3659;SDS011;1846;51.482;7.224;2023-05-07T02:08:59;21.02;;;18.20;;
3659;SDS011;1846;51.482;7.224;2023-05-07T02:11:25;19.40;;;16.38;;
3659;SDS011;1846;51.482;7.224;2023-05-07T02:13:52;17.53;;;15.73;;
3659;SDS011;1846;51.482;7.224;2023-05-07T02:16:20;18.65;;;16.65;;
3659;SDS011;1846;51.482;7.224;2023-05-07T02:18:48;20.98;;;16.50;;
3659;SDS011;1846;51.482;7.224;2023-05-07T02:21:15;21.02;;;16.73;;
3659;SDS011;1846;51.482;7.224;2023-05-07T02:23:42;18.17;;;16.08;;
3659;SDS011;1846;51.482;7.224;2023-05-07T02:26:10;19.58;;;17.52;;
3659;SDS011;1846;51.482;7.224;2023-05-07T02:28:37;20.40;;;18.10;;
3659;SDS011;1846;51.482;7.224;2023-05-07T02:31:06;22.75;;;18.70;;
3659;SDS011;1846;51.482;7.224;2023-05-07T02:33:35;19.45;;;17.65;;
3659;SDS011;1846;51.482;7.224;2023-05-07T02:36:06;20.23;;;18.23;;
3659;SDS011;1846;51.482;7.224;2023-05-07T02:38:33;19.55;;;17.48;;
3659;SDS011;1846;51.482;7.224;2023-05-07T02:41:00;23.30;;;18.30;;
3659;SDS011;1846;51.482;7.224;2023-05-07T02:43:27;20.67;;;17.40;;
3659;SDS011;1846;51.482;7.224;2023-05-07T02:46:01;20.73;;;18.52;;
3659;SDS011;1846;51.482;7.224;2023-05-07T02:48:28;23.08;;;18.02;;
3659;SDS011;1846;51.482;7.224;2023-05-07T02:50:57;21.30;;;17.10;;
3659;SDS011;1846;51.482;7.224;2023-05-07T02:53:24;19.90;;;17.80;;
3659;SDS011;1846;51.482;7.224;2023-05-07T02:55:51;19.60;;;17.60;;
3659;SDS011;1846;51.482;7.224;2023-05-07T02:58:18;19.50;;;17.60;;
3659;SDS011;1846;51.482;7.224;2023-05-07T03:00:45;20.33;;;18.13;;
3659;SDS011;1846;51.482;7.224;2023-05-07T03:03:12;23.15;;;18.67;;
3659;SDS011;1846;51.482;7.224;2023-05-07T03:05:39;19.40;;;17.40;;
3659;SDS011;1846;51.482;7.224;2023-05-07T03:08:08;21.08;;;18.90;;
3659;SDS011;1846;51.482;7.224;2023-05-07T03:10:36;21.42;;;18.17;;
3659;SDS011;1846;51.482;7.224;2023-05-07T03:13:03;20.52;;;18.33;;
3659;SDS011;1846;51.482;7.224;2023-05-07T03:15:31;20.55;;;18.45;;
3659;SDS011;1846;51.482;7.224;2023-05-07T03:17:58;22.67;;;19.33;;
3659;SDS011;1846;51.482;7.224;2023-05-07T03:20:24;21.47;;;19.17;;
3659;SDS011;1846;51.482;7.224;2023-05-07T03:22:51;20.58;;;18.38;;
3659;SDS011;1846;51.482;7.224;2023-05-07T03:25:19;21.10;;;18.90;;
3659;SDS011;1846;51.482;7.224;2023-05-07T03:27:46;19.30;;;17.40;;
3659;SDS011;1846;51.482;7.224;2023-05-07T03:30:13;21.90;;;19.73;;
3659;SDS011;1846;51.482;7.224;2023-05-07T03:32:40;24.02;;;19.33;;
3659;SDS011;1846;51.482;7.224;2023-05-07T03:35:07;21.15;;;18.95;;
3659;SDS011;1846;51.482;7.224;2023-05-07T03:37:34;20.95;;;18.55;;
3659;SDS011;1846;51.482;7.224;2023-05-07T03:40:01;21.10;;;18.90;;
3659;SDS011;1846;51.482;7.224;2023-05-07T03:42:30;22.08;;;19.67;;
3659;SDS011;1846;51.482;7.224;2023-05-07T03:44:57;20.17;;;18.00;;
3659;SDS011;1846;51.482;7.224;2023-05-07T03:47:24;22.33;;;20.02;;
3659;SDS011;1846;51.482;7.224;2023-05-07T03:49:52;23.30;;;19.60;;
3659;SDS011;1846;51.482;7.224;2023-05-07T03:52:20;21.90;;;19.67;;
3659;SDS011;1846;51.482;7.224;2023-05-07T03:54:50;20.98;;;18.88;;
3659;SDS011;1846;51.482;7.224;2023-05-07T03:57:18;21.00;;;18.90;;
3659;SDS011;1846;51.482;7.224;2023-05-07T03:59:46;20.73;;;18.73;;
3659;SDS011;1846;51.482;7.224;2023-05-07T04:02:13;21.95;;;19.60;;
3659;SDS011;1846;51.482;7.224;2023-05-07T04:04:39;22.15;;;19.85;;
3659;SDS011;1846;51.482;7.224;2023-05-07T04:07:06;35.17;;;26.80;;
3659;SDS011;1846;51.482;7.224;2023-05-07T04:09:33;22.80;;;20.40;;
3659;SDS011;1846;51.482;7.224;2023-05-07T04:12:00;22.50;;;20.17;;
3659;SDS011;1846;51.482;7.224;2023-05-07T04:14:27;24.35;;;21.00;;
3659;SDS011;1846;51.482;7.224;2023-05-07T04:16:56;23.92;;;21.45;;
3659;SDS011;1846;51.482;7.224;2023-05-07T04:19:23;23.08;;;20.67;;
3659;SDS011;1846;51.482;7.224;2023-05-07T04:21:50;24.73;;;21.40;;
3659;SDS011;1846;51.482;7.224;2023-05-07T04:24:17;24.20;;;21.60;;
3659;SDS011;1846;51.482;7.224;2023-05-07T04:26:44;27.02;;;22.02;;
3659;SDS011;1846;51.482;7.224;2023-05-07T04:29:11;26.52;;;23.17;;
3659;SDS011;1846;51.482;7.224;2023-05-07T04:31:38;24.57;;;21.73;;
3659;SDS011;1846;51.482;7.224;2023-05-07T04:34:06;27.13;;;24.25;;
3659;SDS011;1846;51.482;7.224;2023-05-07T04:36:37;26.48;;;21.95;;
3659;SDS011;1846;51.482;7.224;2023-05-07T04:39:04;27.30;;;24.30;;
3659;SDS011;1846;51.482;7.224;2023-05-07T04:41:31;27.38;;;24.17;;
3659;SDS011;1846;51.482;7.224;2023-05-07T04:44:00;28.45;;;23.13;;
3659;SDS011;1846;51.482;7.224;2023-05-07T04:46:29;26.60;;;23.70;;
3659;SDS011;1846;51.482;7.224;2023-05-07T04:48:56;29.55;;;23.77;;
3659;SDS011;1846;51.482;7.224;2023-05-07T04:51:24;26.20;;;23.13;;
3659;SDS011;1846;51.482;7.224;2023-05-07T04:53:51;25.52;;;21.75;;
3659;SDS011;1846;51.482;7.224;2023-05-07T04:56:17;23.30;;;20.90;;
3659;SDS011;1846;51.482;7.224;2023-05-07T04:58:45;24.05;;;20.95;;
3659;SDS011;1846;51.482;7.224;2023-05-07T05:01:12;23.95;;;20.00;;
3659;SDS011;1846;51.482;7.224;2023-05-07T05:03:39;22.00;;;19.60;;
3659;SDS011;1846;51.482;7.224;2023-05-07T05:06:06;19.95;;;17.85;;
3659;SDS011;1846;51.482;7.224;2023-05-07T05:08:34;21.48;;;19.17;;
3659;SDS011;1846;51.482;7.224;2023-05-07T05:11:01;19.67;;;17.77;;
3659;SDS011;1846;51.482;7.224;2023-05-07T05:13:27;20.35;;;17.17;;
3659;SDS011;1846;51.482;7.224;2023-05-07T05:15:55;18.60;;;16.80;;
3659;SDS011;1846;51.482;7.224;2023-05-07T05:18:22;17.98;;;16.17;;
3659;SDS011;1846;51.482;7.224;2023-05-07T05:20:49;16.73;;;15.13;;
3659;SDS011;1846;51.482;7.224;2023-05-07T05:23:17;16.75;;;15.05;;
3659;SDS011;1846;51.482;7.224;2023-05-07T05:25:45;16.45;;;14.38;;
3659;SDS011;1846;51.482;7.224;2023-05-07T05:28:12;15.27;;;13.77;;
3659;SDS011;1846;51.482;7.224;2023-05-07T05:30:39;14.55;;;13.07;;
3659;SDS011;1846;51.482;7.224;2023-05-07T05:33:06;14.45;;;13.15;;
3659;SDS011;1846;51.482;7.224;2023-05-07T05:35:33;15.40;;;13.85;;
3659;SDS011;1846;51.482;7.224;2023-05-07T05:38:00;14.05;;;12.75;;
3659;SDS011;1846;51.482;7.224;2023-05-07T05:40:27;14.40;;;13.10;;
3659;SDS011;1846;51.482;7.224;2023-05-07T05:42:55;13.40;;;12.10;;
3659;SDS011;1846;51.482;7.224;2023-05-07T05:45:22;13.55;;;12.35;;
3659;SDS011;1846;51.482;7.224;2023-05-07T05:47:49;12.23;;;11.13;;
3659;SDS011;1846;51.482;7.224;2023-05-07T05:50:16;12.88;;;11.68;;
3659;SDS011;1846;51.482;7.224;2023-05-07T05:52:42;13.45;;;10.20;;
3659;SDS011;1846;51.482;7.224;2023-05-07T05:55:09;11.10;;;10.00;;
3659;SDS011;1846;51.482;7.224;2023-05-07T05:57:36;9.10;;;8.30;;
3659;SDS011;1846;51.482;7.224;2023-05-07T06:00:05;8.80;;;8.00;;
3659;SDS011;1846;51.482;7.224;2023-05-07T06:02:33;8.70;;;8.00;;
3659;SDS011;1846;51.482;7.224;2023-05-07T06:05:00;8.40;;;7.70;;
3659;SDS011;1846;51.482;7.224;2023-05-07T06:07:27;8.90;;;7.32;;
3659;SDS011;1846;51.482;7.224;2023-05-07T06:09:53;7.53;;;6.82;;
3659;SDS011;1846;51.482;7.224;2023-05-07T06:12:20;8.93;;;6.67;;
3659;SDS011;1846;51.482;7.224;2023-05-07T06:14:47;7.68;;;6.50;;
3659;SDS011;1846;51.482;7.224;2023-05-07T06:17:16;7.75;;;6.07;;
3659;SDS011;1846;51.482;7.224;2023-05-07T06:19:42;6.25;;;5.60;;
3659;SDS011;1846;51.482;7.224;2023-05-07T06:22:09;6.10;;;5.70;;
3659;SDS011;1846;51.482;7.224;2023-05-07T06:24:36;5.70;;;5.20;;
3659;SDS011;1846;51.482;7.224;2023-05-07T06:27:03;5.90;;;5.30;;
3659;SDS011;1846;51.482;7.224;2023-05-07T06:29:30;5.45;;;4.95;;
3659;SDS011;1846;51.482;7.224;2023-05-07T06:32:05;5.53;;;5.03;;
3659;SDS011;1846;51.482;7.224;2023-05-07T06:34:34;5.20;;;4.80;;
3659;SDS011;1846;51.482;7.224;2023-05-07T06:37:01;6.90;;;4.97;;
3659;SDS011;1846;51.482;7.224;2023-05-07T06:39:28;5.88;;;5.00;;
3659;SDS011;1846;51.482;7.224;2023-05-07T06:41:55;5.00;;;4.60;;
3659;SDS011;1846;51.482;7.224;2023-05-07T06:44:22;4.63;;;4.22;;
3659;SDS011;1846;51.482;7.224;2023-05-07T06:46:48;4.50;;;4.10;;
3659;SDS011;1846;51.482;7.224;2023-05-07T06:49:15;4.85;;;4.45;;
3659;SDS011;1846;51.482;7.224;2023-05-07T06:51:44;4.80;;;4.40;;
3659;SDS011;1846;51.482;7.224;2023-05-07T06:54:10;4.57;;;4.28;;
3659;SDS011;1846;51.482;7.224;2023-05-07T06:56:37;5.13;;;4.72;;
3659;SDS011;1846;51.482;7.224;2023-05-07T06:59:04;3.90;;;3.60;;
3659;SDS011;1846;51.482;7.224;2023-05-07T07:01:32;8.27;;;5.72;;
3659;SDS011;1846;51.482;7.224;2023-05-07T07:03:59;3.72;;;3.42;;
3659;SDS011;1846;51.482;7.224;2023-05-07T07:06:26;7.00;;;3.78;;
3659;SDS011;1846;51.482;7.224;2023-05-07T07:08:54;5.47;;;4.30;;
3659;SDS011;1846;51.482;7.224;2023-05-07T07:11:21;5.50;;;4.13;;
3659;SDS011;1846;51.482;7.224;2023-05-07T07:13:48;4.13;;;3.72;;
3659;SDS011;1846;51.482;7.224;2023-05-07T07:16:15;4.60;;;4.20;;
3659;SDS011;1846;51.482;7.224;2023-05-07T07:18:42;4.90;;;4.40;;
3659;SDS011;1846;51.482;7.224;2023-05-07T07:21:09;4.40;;;4.10;;
3659;SDS011;1846;51.482;7.224;2023-05-07T07:23:36;4.80;;;4.40;;
3659;SDS011;1846;51.482;7.224;2023-05-07T07:26:05;5.22;;;4.72;;
3659;SDS011;1846;51.482;7.224;2023-05-07T07:28:32;7.82;;;4.25;;
3659;SDS011;1846;51.482;7.224;2023-05-07T07:30:58;4.80;;;4.30;;
3659;SDS011;1846;51.482;7.224;2023-05-07T07:33:25;4.60;;;4.20;;
3659;SDS011;1846;51.482;7.224;2023-05-07T07:35:52;4.82;;;4.40;;
3659;SDS011;1846;51.482;7.224;2023-05-07T07:38:19;4.47;;;4.13;;
3659;SDS011;1846;51.482;7.224;2023-05-07T07:40:47;5.20;;;4.15;;
3659;SDS011;1846;51.482;7.224;2023-05-07T07:43:15;4.45;;;4.15;;
3659;SDS011;1846;51.482;7.224;2023-05-07T07:45:42;4.90;;;4.60;;
3659;SDS011;1846;51.482;7.224;2023-05-07T07:48:09;6.00;;;4.03;;
3659;SDS011;1846;51.482;7.224;2023-05-07T07:50:36;4.47;;;4.18;;
3659;SDS011;1846;51.482;7.224;2023-05-07T07:53:03;6.07;;;4.63;;
3659;SDS011;1846;51.482;7.224;2023-05-07T07:55:29;5.72;;;4.70;;
3659;SDS011;1846;51.482;7.224;2023-05-07T07:57:57;4.90;;;4.40;;
3659;SDS011;1846;51.482;7.224;2023-05-07T08:00:25;5.20;;;4.70;;
3659;SDS011;1846;51.482;7.224;2023-05-07T08:02:52;4.70;;;4.40;;
3659;SDS011;1846;51.482;7.224;2023-05-07T08:05:19;5.97;;;4.47;;
3659;SDS011;1846;51.482;7.224;2023-05-07T08:07:46;5.03;;;4.57;;
3659;SDS011;1846;51.482;7.224;2023-05-07T08:10:17;5.22;;;4.82;;
3659;SDS011;1846;51.482;7.224;2023-05-07T08:12:46;5.57;;;5.00;;
3659;SDS011;1846;51.482;7.224;2023-05-07T08:15:13;4.60;;;4.20;;
3659;SDS011;1846;51.482;7.224;2023-05-07T08:17:41;4.80;;;4.30;;
3659;SDS011;1846;51.482;7.224;2023-05-07T08:20:09;4.28;;;3.95;;
3659;SDS011;1846;51.482;7.224;2023-05-07T08:22:36;4.00;;;3.70;;
3659;SDS011;1846;51.482;7.224;2023-05-07T08:25:03;5.05;;;4.00;;
3659;SDS011;1846;51.482;7.224;2023-05-07T08:27:31;4.00;;;3.70;;
3659;SDS011;1846;51.482;7.224;2023-05-07T08:29:57;4.65;;;4.28;;
3659;SDS011;1846;51.482;7.224;2023-05-07T08:32:24;3.83;;;3.60;;
3659;SDS011;1846;51.482;7.224;2023-05-07T08:34:53;4.65;;;4.32;;
3659;SDS011;1846;51.482;7.224;2023-05-07T08:37:20;4.22;;;3.92;;
3659;SDS011;1846;51.482;7.224;2023-05-07T08:39:47;6.90;;;3.65;;
3659;SDS011;1846;51.482;7.224;2023-05-07T08:42:14;4.00;;;3.70;;
3659;SDS011;1846;51.482;7.224;2023-05-07T08:44:44;5.57;;;3.80;;
3659;SDS011;1846;51.482;7.224;2023-05-07T08:47:12;4.90;;;3.80;;
3659;SDS011;1846;51.482;7.224;2023-05-07T08:49:39;3.67;;;3.38;;
3659;SDS011;1846;51.482;7.224;2023-05-07T08:52:08;4.43;;;3.90;;
3659;SDS011;1846;51.482;7.224;2023-05-07T08:54:36;4.05;;;3.75;;
3659;SDS011;1846;51.482;7.224;2023-05-07T08:57:03;4.30;;;4.00;;
3659;SDS011;1846;51.482;7.224;2023-05-07T08:59:30;4.05;;;3.75;;
3659;SDS011;1846;51.482;7.224;2023-05-07T09:01:57;4.25;;;3.95;;
3659;SDS011;1846;51.482;7.224;2023-05-07T09:04:24;3.83;;;3.53;;
3659;SDS011;1846;51.482;7.224;2023-05-07T09:06:51;3.45;;;3.25;;
3659;SDS011;1846;51.482;7.224;2023-05-07T09:09:21;4.43;;;4.03;;
3659;SDS011;1846;51.482;7.224;2023-05-07T09:11:48;4.75;;;3.80;;
3659;SDS011;1846;51.482;7.224;2023-05-07T09:14:21;4.70;;;4.30;;
3659;SDS011;1846;51.482;7.224;2023-05-07T09:16:48;4.60;;;4.30;;
3659;SDS011;1846;51.482;7.224;2023-05-07T09:19:15;4.70;;;4.38;;
3659;SDS011;1846;51.482;7.224;2023-05-07T09:21:41;4.50;;;4.20;;
3659;SDS011;1846;51.482;7.224;2023-05-07T09:24:08;4.70;;;4.40;;
3659;SDS011;1846;51.482;7.224;2023-05-07T09:26:36;5.22;;;4.78;;
3659;SDS011;1846;51.482;7.224;2023-05-07T09:29:03;4.93;;;4.53;;
3659;SDS011;1846;51.482;7.224;2023-05-07T09:31:30;5.18;;;4.60;;
3659;SDS011;1846;51.482;7.224;2023-05-07T09:33:57;6.10;;;5.60;;
3659;SDS011;1846;51.482;7.224;2023-05-07T09:36:25;5.83;;;5.43;;
3659;SDS011;1846;51.482;7.224;2023-05-07T09:38:54;6.38;;;5.78;;
3659;SDS011;1846;51.482;7.224;2023-05-07T09:41:21;5.68;;;5.07;;
3659;SDS011;1846;51.482;7.224;2023-05-07T09:43:53;5.88;;;5.38;;
3659;SDS011;1846;51.482;7.224;2023-05-07T09:46:20;6.50;;;5.90;;
3659;SDS011;1846;51.482;7.224;2023-05-07T09:48:57;6.00;;;5.40;;
3659;SDS011;1846;51.482;7.224;2023-05-07T09:51:28;7.78;;;5.80;;
3659;SDS011;1846;51.482;7.224;2023-05-07T09:53:56;5.53;;;5.13;;
3659;SDS011;1846;51.482;7.224;2023-05-07T09:56:25;6.35;;;5.75;;
3659;SDS011;1846;51.482;7.224;2023-05-07T09:58:54;5.00;;;4.60;;
3659;SDS011;1846;51.482;7.224;2023-05-07T10:01:22;5.80;;;5.30;;
3659;SDS011;1846;51.482;7.224;2023-05-07T10:03:51;6.25;;;5.30;;
3659;SDS011;1846;51.482;7.224;2023-05-07T10:06:19;5.10;;;4.80;;
3659;SDS011;1846;51.482;7.224;2023-05-07T10:08:46;5.50;;;5.00;;
3659;SDS011;1846;51.482;7.224;2023-05-07T10:11:15;5.72;;;4.65;;
3659;SDS011;1846;51.482;7.224;2023-05-07T10:13:43;4.85;;;3.45;;
3659;SDS011;1846;51.482;7.224;2023-05-07T10:16:13;3.50;;;2.83;;
3659;SDS011;1846;51.482;7.224;2023-05-07T10:18:41;3.40;;;3.10;;
3659;SDS011;1846;51.482;7.224;2023-05-07T10:21:11;4.10;;;3.33;;
3659;SDS011;1846;51.482;7.224;2023-05-07T10:23:42;5.60;;;4.00;;
3659;SDS011;1846;51.482;7.224;2023-05-07T10:26:12;3.20;;;3.00;;
3659;SDS011;1846;51.482;7.224;2023-05-07T10:28:41;3.67;;;3.37;;
3659;SDS011;1846;51.482;7.224;2023-05-07T10:31:18;3.80;;;3.50;;
3659;SDS011;1846;51.482;7.224;2023-05-07T10:33:59;3.43;;;3.27;;
3659;SDS011;1846;51.482;7.224;2023-05-07T10:36:29;4.38;;;4.07;;
3659;SDS011;1846;51.482;7.224;2023-05-07T10:38:55;3.53;;;3.33;;
3659;SDS011;1846;51.482;7.224;2023-05-07T10:41:22;2.92;;;2.72;;
3659;SDS011;1846;51.482;7.224;2023-05-07T10:43:49;5.10;;;3.95;;
3659;SDS011;1846;51.482;7.224;2023-05-07T10:46:18;3.40;;;3.20;;
3659;SDS011;1846;51.482;7.224;2023-05-07T10:51:38;4.57;;;4.18;;
3659;SDS011;1846;51.482;7.224;2023-05-07T10:54:20;5.13;;;4.60;;
3659;SDS011;1846;51.482;7.224;2023-05-07T10:56:51;5.00;;;4.60;;
3659;SDS011;1846;51.482;7.224;2023-05-07T10:59:31;5.07;;;4.78;;
3659;SDS011;1846;51.482;7.224;2023-05-07T11:02:08;5.25;;;4.85;;
3659;SDS011;1846;51.482;7.224;2023-05-07T11:04:36;5.20;;;4.70;;
3659;SDS011;1846;51.482;7.224;2023-05-07T11:09:59;4.53;;;4.22;;
3659;SDS011;1846;51.482;7.224;2023-05-07T11:12:48;3.70;;;3.50;;
3659;SDS011;1846;51.482;7.224;2023-05-07T11:18:03;4.30;;;3.90;;
3659;SDS011;1846;51.482;7.224;2023-05-07T11:26:23;4.07;;;3.78;;
3659;SDS011;1846;51.482;7.224;2023-05-07T11:28:51;4.80;;;3.65;;
3659;SDS011;1846;51.482;7.224;2023-05-07T11:31:22;4.50;;;4.10;;
3659;SDS011;1846;51.482;7.224;2023-05-07T11:33:52;7.30;;;5.40;;
3659;SDS011;1846;51.482;7.224;2023-05-07T11:36:20;7.22;;;5.88;;
3659;SDS011;1846;51.482;7.224;2023-05-07T11:38:48;7.63;;;6.85;;
3659;SDS011;1846;51.482;7.224;2023-05-07T11:41:16;7.70;;;6.90;;
3659;SDS011;1846;51.482;7.224;2023-05-07T11:43:54;6.25;;;5.75;;
3659;SDS011;1846;51.482;7.224;2023-05-07T11:46:26;7.50;;;5.95;;
3659;SDS011;1846;51.482;7.224;2023-05-07T11:48:55;6.90;;;6.30;;
3659;SDS011;1846;51.482;7.224;2023-05-07T11:51:23;7.78;;;7.15;;
3659;SDS011;1846;51.482;7.224;2023-05-07T11:53:52;7.88;;;7.18;;
3659;SDS011;1846;51.482;7.224;2023-05-07T11:56:19;8.15;;;7.45;;
3659;SDS011;1846;51.482;7.224;2023-05-07T11:58:47;8.38;;;7.60;;
3659;SDS011;1846;51.482;7.224;2023-05-07T12:01:16;7.40;;;6.80;;
3659;SDS011;1846;51.482;7.224;2023-05-07T12:03:44;9.77;;;8.88;;
3659;SDS011;1846;51.482;7.224;2023-05-07T12:06:13;8.70;;;7.90;;
3659;SDS011;1846;51.482;7.224;2023-05-07T12:08:41;7.80;;;6.72;;
3659;SDS011;1846;51.482;7.224;2023-05-07T12:11:09;6.82;;;6.28;;
3659;SDS011;1846;51.482;7.224;2023-05-07T12:13:40;8.95;;;8.05;;
3659;SDS011;1846;51.482;7.224;2023-05-07T12:16:07;9.18;;;8.23;;
3659;SDS011;1846;51.482;7.224;2023-05-07T12:18:35;7.80;;;7.20;;
3659;SDS011;1846;51.482;7.224;2023-05-07T12:21:03;9.10;;;8.25;;
3659;SDS011;1846;51.482;7.224;2023-05-07T12:23:32;9.73;;;8.70;;
3659;SDS011;1846;51.482;7.224;2023-05-07T12:26:00;8.98;;;8.10;;
3659;SDS011;1846;51.482;7.224;2023-05-07T12:28:27;9.23;;;8.40;;
3659;SDS011;1846;51.482;7.224;2023-05-07T12:30:55;7.65;;;6.85;;
3659;SDS011;1846;51.482;7.224;2023-05-07T12:33:24;7.50;;;6.90;;
3659;SDS011;1846;51.482;7.224;2023-05-07T12:35:53;7.28;;;6.57;;
3659;SDS011;1846;51.482;7.224;2023-05-07T12:38:21;8.15;;;7.28;;
3659;SDS011;1846;51.482;7.224;2023-05-07T12:40:50;8.75;;;7.32;;
3659;SDS011;1846;51.482;7.224;2023-05-07T12:43:20;7.82;;;7.13;;
3659;SDS011;1846;51.482;7.224;2023-05-07T12:45:48;7.97;;;7.28;;
3659;SDS011;1846;51.482;7.224;2023-05-07T12:48:16;8.05;;;7.25;;
3659;SDS011;1846;51.482;7.224;2023-05-07T12:50:43;8.23;;;7.20;;
3659;SDS011;1846;51.482;7.224;2023-05-07T12:53:10;6.80;;;6.20;;
3659;SDS011;1846;51.482;7.224;2023-05-07T12:55:41;8.95;;;6.53;;
3659;SDS011;1846;51.482;7.224;2023-05-07T12:58:15;7.03;;;6.32;;
3659;SDS011;1846;51.482;7.224;2023-05-07T13:00:43;8.47;;;7.67;;
3659;SDS011;1846;51.482;7.224;2023-05-07T13:03:10;8.55;;;7.70;;
3659;SDS011;1846;51.482;7.224;2023-05-07T13:05:37;7.90;;;7.10;;
3659;SDS011;1846;51.482;7.224;2023-05-07T13:08:04;6.80;;;6.30;;
3659;SDS011;1846;51.482;7.224;2023-05-07T13:10:31;7.87;;;7.17;;
3659;SDS011;1846;51.482;7.224;2023-05-07T13:12:59;7.28;;;6.57;;
3659;SDS011;1846;51.482;7.224;2023-05-07T13:15:27;6.88;;;6.35;;
3659;SDS011;1846;51.482;7.224;2023-05-07T13:17:54;6.40;;;5.57;;
3659;SDS011;1846;51.482;7.224;2023-05-07T13:20:21;6.35;;;5.75;;
3659;SDS011;1846;51.482;7.224;2023-05-07T13:22:48;6.45;;;5.85;;
3659;SDS011;1846;51.482;7.224;2023-05-07T13:25:15;5.95;;;5.55;;
3659;SDS011;1846;51.482;7.224;2023-05-07T13:27:42;5.77;;;5.27;;
3659;SDS011;1846;51.482;7.224;2023-05-07T13:30:09;5.43;;;5.03;;
3659;SDS011;1846;51.482;7.224;2023-05-07T13:32:37;5.88;;;5.35;;
3659;SDS011;1846;51.482;7.224;2023-05-07T13:35:04;6.38;;;5.72;;
3659;SDS011;1846;51.482;7.224;2023-05-07T13:37:32;6.20;;;5.60;;
3659;SDS011;1846;51.482;7.224;2023-05-07T13:39:59;7.53;;;6.93;;
3659;SDS011;1846;51.482;7.224;2023-05-07T13:42:26;6.72;;;6.22;;
3659;SDS011;1846;51.482;7.224;2023-05-07T13:44:52;7.63;;;6.83;;
3659;SDS011;1846;51.482;7.224;2023-05-07T13:47:19;8.02;;;6.25;;
3659;SDS011;1846;51.482;7.224;2023-05-07T13:49:47;8.05;;;7.25;;
3659;SDS011;1846;51.482;7.224;2023-05-07T13:52:15;7.45;;;5.97;;
3659;SDS011;1846;51.482;7.224;2023-05-07T13:54:42;8.10;;;6.60;;
3659;SDS011;1846;51.482;7.224;2023-05-07T13:57:09;6.75;;;6.20;;
3659;SDS011;1846;51.482;7.224;2023-05-07T13:59:36;7.43;;;6.53;;
3659;SDS011;1846;51.482;7.224;2023-05-07T14:02:02;6.32;;;5.88;;
3659;SDS011;1846;51.482;7.224;2023-05-07T14:04:30;6.90;;;6.30;;
3659;SDS011;1846;51.482;7.224;2023-05-07T14:06:58;9.00;;;8.10;;
3659;SDS011;1846;51.482;7.224;2023-05-07T14:09:25;7.00;;;6.32;;
3659;SDS011;1846;51.482;7.224;2023-05-07T14:11:52;7.25;;;6.50;;
3659;SDS011;1846;51.482;7.224;2023-05-07T14:14:19;6.40;;;5.80;;
3659;SDS011;1846;51.482;7.224;2023-05-07T14:16:46;5.90;;;5.40;;
3659;SDS011;1846;51.482;7.224;2023-05-07T14:19:12;5.70;;;5.30;;
3659;SDS011;1846;51.482;7.224;2023-05-07T14:21:39;6.78;;;6.18;;
3659;SDS011;1846;51.482;7.224;2023-05-07T14:24:08;6.05;;;5.45;;
3659;SDS011;1846;51.482;7.224;2023-05-07T14:26:35;6.20;;;5.70;;
3659;SDS011;1846;51.482;7.224;2023-05-07T14:29:02;6.50;;;5.20;;
3659;SDS011;1846;51.482;7.224;2023-05-07T14:31:29;5.30;;;4.80;;
3659;SDS011;1846;51.482;7.224;2023-05-07T14:33:56;4.82;;;4.43;;
3659;SDS011;1846;51.482;7.224;2023-05-07T14:36:24;5.10;;;4.75;;
3659;SDS011;1846;51.482;7.224;2023-05-07T14:38:51;5.13;;;4.45;;
3659;SDS011;1846;51.482;7.224;2023-05-07T14:41:20;6.00;;;5.50;;
3659;SDS011;1846;51.482;7.224;2023-05-07T14:43:47;5.33;;;4.83;;
3659;SDS011;1846;51.482;7.224;2023-05-07T14:46:16;5.43;;;4.93;;
3659;SDS011;1846;51.482;7.224;2023-05-07T14:48:43;5.03;;;4.70;;
3659;SDS011;1846;51.482;7.224;2023-05-07T14:51:11;7.05;;;5.82;;
3659;SDS011;1846;51.482;7.224;2023-05-07T14:53:37;6.77;;;5.87;;
3659;SDS011;1846;51.482;7.224;2023-05-07T14:56:04;6.40;;;5.90;;
3659;SDS011;1846;51.482;7.224;2023-05-07T14:58:33;8.75;;;5.80;;
3659;SDS011;1846;51.482;7.224;2023-05-07T15:01:02;7.00;;;6.30;;
3659;SDS011;1846;51.482;7.224;2023-05-07T15:03:29;6.95;;;6.35;;
3659;SDS011;1846;51.482;7.224;2023-05-07T15:05:56;6.03;;;5.47;;
3659;SDS011;1846;51.482;7.224;2023-05-07T15:08:23;6.75;;;6.18;;
3659;SDS011;1846;51.482;7.224;2023-05-07T15:10:49;6.30;;;5.80;;
3659;SDS011;1846;51.482;7.224;2023-05-07T15:13:16;7.13;;;6.53;;
3659;SDS011;1846;51.482;7.224;2023-05-07T15:15:44;7.10;;;6.50;;
3659;SDS011;1846;51.482;7.224;2023-05-07T15:18:11;7.95;;;7.20;;
3659;SDS011;1846;51.482;7.224;2023-05-07T15:20:38;6.97;;;6.47;;
3659;SDS011;1846;51.482;7.224;2023-05-07T15:23:05;7.05;;;6.35;;